createdAt,value
2022-10-19T00:01:06.155Z,8.00
2022-10-19T00:03:39.555Z,7.50
2022-10-19T00:06:16.832Z,7.20
2022-10-19T00:08:48.855Z,6.90
2022-10-19T00:11:21.538Z,8.10
2022-10-19T00:13:58.910Z,7.60
2022-10-19T00:16:33.277Z,7.00
2022-10-19T00:19:08.228Z,7.30
2022-10-19T00:21:40.471Z,7.00
2022-10-19T00:24:12.679Z,6.20
2022-10-19T00:26:44.693Z,6.60
2022-10-19T00:29:17.432Z,6.00
2022-10-19T00:31:52.228Z,8.90
2022-10-19T00:34:24.254Z,7.60
2022-10-19T00:36:56.269Z,8.40
2022-10-19T00:39:28.357Z,8.60
2022-10-19T00:42:00.347Z,7.90
2022-10-19T00:45:04.357Z,8.00
2022-10-19T00:47:36.845Z,6.90
2022-10-19T00:50:10.544Z,7.80
2022-10-19T00:52:42.928Z,7.60
2022-10-19T00:55:15.187Z,6.90
2022-10-19T00:57:47.611Z,7.70
2022-10-19T01:00:20.456Z,7.70
2022-10-19T01:02:52.527Z,8.60
2022-10-19T01:05:25.091Z,8.40
2022-10-19T01:07:57.181Z,8.10
2022-10-19T01:10:37.960Z,8.20
2022-10-19T01:13:22.956Z,8.90
2022-10-19T01:16:00.898Z,9.60
2022-10-19T01:18:44.325Z,9.00
2022-10-19T01:21:30.033Z,9.70
2022-10-19T01:24:45.582Z,10.00
2022-10-19T01:27:41.086Z,9.30
2022-10-19T01:30:18.058Z,11.00
2022-10-19T01:33:03.603Z,10.40
2022-10-19T01:35:46.492Z,10.90
2022-10-19T01:38:28.431Z,10.50
2022-10-19T01:41:09.718Z,11.40
2022-10-19T01:43:48.549Z,10.40
2022-10-19T01:46:24.099Z,10.60
2022-10-19T01:49:01.190Z,10.60
2022-10-19T01:51:36.927Z,10.20
2022-10-19T01:54:14.243Z,10.20
2022-10-19T01:56:49.441Z,10.10
2022-10-19T01:59:23.726Z,11.20
2022-10-19T02:01:57.075Z,13.80
2022-10-19T02:04:32.208Z,11.20
2022-10-19T02:07:06.325Z,11.00
2022-10-19T02:09:38.432Z,16.40
2022-10-19T02:12:12.363Z,13.90
2022-10-19T02:14:48.618Z,11.60
2022-10-19T02:17:26.029Z,12.70
2022-10-19T02:19:59.025Z,12.10
2022-10-19T02:22:31.441Z,12.50
2022-10-19T02:25:03.719Z,14.60
2022-10-19T02:27:36.786Z,13.40
2022-10-19T02:30:12.441Z,13.10
2022-10-19T02:32:44.894Z,12.90
2022-10-19T02:35:20.330Z,18.20
2022-10-19T02:37:52.717Z,13.00
2022-10-19T02:40:25.101Z,13.20
2022-10-19T02:43:01.877Z,13.60
2022-10-19T02:45:38.427Z,13.80
2022-10-19T02:48:15.345Z,12.60
2022-10-19T02:50:48.784Z,12.70
2022-10-19T02:53:21.213Z,13.70
2022-10-19T02:55:53.666Z,13.00
2022-10-19T02:58:25.996Z,12.90
2022-10-19T03:00:58.015Z,14.00
2022-10-19T03:03:30.395Z,13.20
2022-10-19T03:06:02.356Z,12.80
2022-10-19T03:08:34.687Z,13.70
2022-10-19T03:11:08.147Z,14.00
2022-10-19T03:13:40.102Z,13.10
2022-10-19T03:16:14.453Z,13.50
2022-10-19T03:18:46.329Z,13.90
2022-10-19T03:21:18.887Z,13.60
2022-10-19T03:23:50.795Z,14.00
2022-10-19T03:26:22.712Z,13.80
2022-10-19T03:28:54.730Z,13.70
2022-10-19T03:31:27.273Z,12.80
2022-10-19T03:33:59.321Z,13.30
2022-10-19T03:36:33.554Z,13.80
2022-10-19T03:39:08.275Z,16.20
2022-10-19T03:41:41.055Z,14.50
2022-10-19T03:44:13.916Z,17.20
2022-10-19T03:46:46.401Z,14.80
2022-10-19T03:49:18.520Z,15.00
2022-10-19T03:51:50.981Z,16.30
2022-10-19T03:54:26.495Z,15.90
2022-10-19T03:56:59.633Z,13.60
2022-10-19T03:59:31.822Z,17.30
2022-10-19T04:02:05.602Z,18.50
2022-10-19T04:04:38.126Z,21.50
2022-10-19T04:07:10.127Z,20.50
2022-10-19T04:09:48.761Z,21.40
2022-10-19T04:12:20.836Z,16.50
2022-10-19T04:14:57.221Z,17.90
2022-10-19T04:17:29.942Z,14.00
2022-10-19T04:20:01.980Z,18.00
2022-10-19T04:22:34.074Z,16.90
2022-10-19T04:25:07.343Z,16.00
2022-10-19T04:27:39.417Z,16.50
2022-10-19T04:30:13.720Z,15.60
2022-10-19T04:32:45.773Z,15.10
2022-10-19T04:35:21.190Z,15.20
2022-10-19T04:37:53.179Z,15.20
2022-10-19T04:40:25.181Z,14.80
2022-10-19T04:42:57.088Z,14.50
2022-10-19T04:45:29.432Z,13.90
2022-10-19T04:48:03.490Z,14.10
2022-10-19T04:50:35.382Z,14.10
2022-10-19T04:53:07.853Z,14.10
2022-10-19T04:55:44.116Z,12.80
2022-10-19T04:58:16.176Z,12.80
2022-10-19T05:00:48.243Z,13.70
2022-10-19T05:03:20.545Z,13.50
2022-10-19T05:05:57.433Z,14.70
2022-10-19T05:08:29.412Z,13.00
2022-10-19T05:11:05.788Z,14.10
2022-10-19T05:13:38.534Z,29.00
2022-10-19T05:16:13.649Z,24.70
2022-10-19T05:18:47.706Z,18.80
2022-10-19T05:21:21.906Z,17.90
2022-10-19T05:23:56.197Z,17.10
2022-10-19T05:26:30.904Z,16.30
2022-10-19T05:29:04.637Z,16.10
2022-10-19T05:31:37.420Z,19.00
2022-10-19T05:34:09.608Z,15.00
2022-10-19T05:36:42.153Z,17.70
2022-10-19T05:39:16.391Z,14.80
2022-10-19T05:41:49.403Z,16.90
2022-10-19T05:44:24.116Z,18.00
2022-10-19T05:46:59.155Z,17.70
2022-10-19T05:49:31.474Z,18.80
2022-10-19T05:52:03.638Z,19.90
2022-10-19T05:54:36.177Z,18.10
2022-10-19T05:57:08.214Z,19.20
2022-10-19T05:59:40.876Z,17.70
2022-10-19T06:02:15.632Z,16.30
2022-10-19T06:04:47.740Z,16.00
2022-10-19T06:07:21.289Z,15.60
2022-10-19T06:09:53.317Z,13.80
2022-10-19T06:12:25.528Z,15.00
2022-10-19T06:14:57.489Z,14.10
2022-10-19T06:17:31.662Z,14.70
2022-10-19T06:20:04.262Z,14.80
2022-10-19T06:22:36.153Z,19.20
2022-10-19T06:25:09.524Z,15.20
2022-10-19T06:27:41.826Z,15.30
2022-10-19T06:30:14.655Z,15.60
2022-10-19T06:32:46.889Z,16.70
2022-10-19T06:35:19.408Z,14.70
2022-10-19T06:37:51.415Z,16.10
2022-10-19T06:40:23.451Z,19.20
2022-10-19T06:42:58.636Z,13.60
2022-10-19T06:45:35.602Z,15.60
2022-10-19T06:48:08.538Z,16.90
2022-10-19T06:50:40.545Z,14.40
2022-10-19T06:53:13.067Z,15.00
2022-10-19T06:56:00.413Z,14.60
2022-10-19T06:58:35.664Z,14.20
2022-10-19T07:01:09.567Z,15.50
2022-10-19T07:03:45.122Z,14.90
2022-10-19T07:06:17.240Z,14.70
2022-10-19T07:08:50.778Z,13.60
2022-10-19T07:11:23.822Z,12.70
2022-10-19T07:13:56.145Z,13.60
2022-10-19T07:16:28.123Z,15.40
2022-10-19T07:19:01.778Z,25.90
2022-10-19T07:21:34.020Z,17.00
2022-10-19T07:24:06.441Z,15.20
2022-10-19T07:26:38.603Z,14.30
2022-10-19T07:29:11.029Z,14.40
2022-10-19T07:31:43.085Z,14.90
2022-10-19T07:34:16.548Z,14.80
2022-10-19T07:36:49.076Z,12.50
2022-10-19T07:39:21.297Z,13.40
2022-10-19T07:41:53.393Z,11.90
2022-10-19T07:44:25.593Z,11.60
2022-10-19T07:46:58.100Z,10.60
2022-10-19T07:49:33.044Z,10.30
2022-10-19T07:52:05.873Z,9.60
2022-10-19T07:54:37.961Z,10.30
2022-10-19T07:57:12.147Z,9.10
2022-10-19T07:59:44.559Z,9.60
2022-10-19T08:02:18.706Z,9.70
2022-10-19T08:05:03.205Z,8.10
2022-10-19T08:07:38.899Z,8.90
2022-10-19T08:10:15.062Z,10.80
2022-10-19T08:12:47.041Z,9.00
2022-10-19T08:15:19.311Z,7.60
2022-10-19T08:17:51.421Z,8.60
2022-10-19T08:20:23.816Z,8.80
2022-10-19T08:22:58.833Z,9.60
2022-10-19T08:25:31.151Z,8.30
2022-10-19T08:28:03.320Z,8.10
2022-10-19T08:30:37.326Z,8.80
2022-10-19T08:33:12.565Z,8.10
2022-10-19T08:35:44.619Z,8.60
2022-10-19T08:38:16.611Z,13.90
2022-10-19T08:40:49.160Z,33.70
2022-10-19T08:43:31.221Z,16.10
2022-10-19T08:46:12.790Z,38.60
2022-10-19T08:52:05.139Z,57.90
2022-10-19T08:54:42.970Z,95.10
2022-10-19T08:57:26.325Z,46.50
2022-10-19T09:00:07.637Z,22.80
2022-10-19T09:02:55.070Z,9.40
2022-10-19T09:05:38.933Z,6.10
2022-10-19T09:08:17.556Z,6.20
2022-10-19T09:10:53.629Z,12.80
2022-10-19T09:13:41.763Z,13.60
2022-10-19T09:16:30.680Z,27.80
2022-10-19T09:19:03.001Z,7.90
2022-10-19T09:21:47.381Z,27.70
2022-10-19T09:24:31.410Z,15.30
2022-10-19T09:27:04.988Z,15.20
2022-10-19T09:29:43.531Z,8.10
2022-10-19T09:32:20.497Z,5.90
2022-10-19T09:34:55.391Z,5.20
2022-10-19T09:37:27.806Z,4.20
2022-10-19T09:39:59.810Z,4.50
2022-10-19T09:42:34.688Z,4.70
2022-10-19T09:45:18.708Z,10.50
2022-10-19T09:47:51.572Z,5.20
2022-10-19T09:50:25.318Z,4.50
2022-10-19T09:53:04.919Z,3.70
2022-10-19T09:55:40.580Z,3.90
2022-10-19T09:58:20.247Z,3.60
2022-10-19T10:00:55.081Z,3.70
2022-10-19T10:03:35.292Z,3.40
2022-10-19T10:06:09.455Z,3.90
2022-10-19T10:08:47.398Z,5.60
2022-10-19T10:11:28.118Z,5.70
2022-10-19T10:14:09.140Z,4.30
2022-10-19T10:16:42.102Z,3.40
2022-10-19T10:19:17.382Z,4.10
2022-10-19T10:21:55.862Z,3.60
2022-10-19T10:24:32.427Z,9.60
2022-10-19T10:27:07.274Z,3.50
2022-10-19T10:29:40.192Z,3.30
2022-10-19T10:32:19.551Z,6.40
2022-10-19T10:35:01.635Z,6.50
2022-10-19T10:37:40.397Z,9.10
2022-10-19T10:40:24.123Z,3.70
2022-10-19T10:42:59.302Z,3.00
2022-10-19T10:45:35.122Z,3.00
2022-10-19T10:48:44.025Z,3.10
2022-10-19T10:51:25.207Z,2.60
2022-10-19T10:54:09.631Z,5.20
2022-10-19T10:56:40.641Z,5.90
2022-10-19T10:59:18.880Z,4.70
2022-10-19T11:01:59.679Z,3.40
2022-10-19T11:04:31.946Z,5.40
2022-10-19T11:07:18.806Z,3.10
2022-10-19T11:09:53.334Z,8.80
2022-10-19T11:12:35.241Z,2.70
2022-10-19T11:15:12.153Z,2.30
2022-10-19T11:17:48.043Z,4.40
2022-10-19T11:20:17.361Z,3.10
2022-10-19T11:22:50.938Z,2.70
2022-10-19T11:25:36.420Z,3.10
2022-10-19T11:28:22.100Z,6.70
2022-10-19T11:31:00.982Z,4.00
2022-10-19T11:33:48.178Z,3.20
2022-10-19T11:36:37.680Z,10.10
2022-10-19T11:39:21.005Z,8.60
2022-10-19T11:42:00.648Z,13.00
2022-10-19T11:44:39.733Z,7.40
2022-10-19T11:47:21.249Z,4.70
2022-10-19T11:49:59.976Z,3.10
2022-10-19T11:52:39.445Z,3.00
2022-10-19T11:55:23.160Z,2.30
2022-10-19T11:57:59.292Z,2.50
2022-10-19T12:00:39.135Z,4.00
2022-10-19T12:06:01.278Z,2.50
2022-10-19T12:08:45.897Z,2.90
2022-10-19T12:11:28.003Z,3.10
2022-10-19T12:14:00.607Z,1.70
2022-10-19T12:16:36.920Z,1.90
2022-10-19T12:19:09.366Z,2.10
2022-10-19T12:21:42.488Z,3.10
2022-10-19T12:24:17.892Z,2.10
2022-10-19T12:26:48.262Z,1.90
2022-10-19T12:29:22.881Z,2.10
2022-10-19T12:31:53.244Z,3.20
2022-10-19T12:34:36.695Z,2.00
2022-10-19T12:37:12.408Z,2.20
2022-10-19T12:39:49.266Z,3.10
2022-10-19T12:42:24.505Z,2.20
2022-10-19T12:45:09.984Z,4.00
2022-10-19T12:47:38.464Z,6.30
2022-10-19T12:50:08.045Z,6.30
2022-10-19T12:52:40.959Z,3.00
2022-10-19T12:55:26.382Z,3.30
2022-10-19T12:58:02.006Z,4.10
2022-10-19T13:00:33.799Z,2.80
2022-10-19T13:03:06.945Z,3.10
2022-10-19T13:05:36.353Z,5.40
2022-10-19T13:08:09.279Z,5.20
2022-10-19T13:10:40.818Z,2.50
2022-10-19T13:13:51.892Z,3.30
2022-10-19T13:16:55.194Z,5.20
2022-10-19T13:19:24.374Z,2.50
2022-10-19T13:22:24.499Z,2.60
2022-10-19T13:25:23.666Z,4.40
2022-10-19T13:27:53.907Z,2.30
2022-10-19T13:31:04.882Z,2.30
2022-10-19T13:33:51.132Z,2.10
2022-10-19T13:36:21.656Z,1.80
2022-10-19T13:41:53.253Z,1.70
2022-10-19T13:44:33.181Z,2.40
2022-10-19T13:47:30.679Z,2.40
2022-10-19T13:50:25.747Z,2.80
2022-10-19T13:53:18.306Z,5.70
2022-10-19T13:56:20.700Z,3.40
2022-10-19T13:59:30.133Z,14.80
2022-10-19T14:02:30.579Z,6.00
2022-10-19T14:05:14.418Z,7.20
2022-10-19T14:07:50.497Z,5.30
2022-10-19T14:10:25.097Z,5.10
2022-10-19T14:13:03.029Z,5.20
2022-10-19T14:15:33.489Z,6.40
2022-10-19T14:20:36.200Z,6.10
2022-10-19T14:23:20.182Z,5.30
2022-10-19T14:25:54.567Z,63.90
2022-10-19T14:28:24.704Z,18.60
2022-10-19T14:30:58.923Z,7.40
2022-10-19T14:33:28.955Z,5.80
2022-10-19T14:35:57.756Z,7.90
2022-10-19T14:38:31.639Z,5.40
2022-10-19T14:41:00.311Z,8.00
2022-10-19T14:43:33.136Z,8.60
2022-10-19T14:46:14.639Z,7.00
2022-10-19T14:48:45.102Z,9.30
2022-10-19T14:51:28.956Z,11.70
2022-10-19T14:54:03.669Z,20.90
2022-10-19T14:56:35.989Z,13.80
2022-10-19T14:59:15.205Z,28.00
2022-10-19T15:01:50.137Z,16.00
2022-10-19T15:04:20.765Z,36.60
2022-10-19T15:06:49.910Z,8.80
2022-10-19T15:09:37.010Z,10.10
2022-10-19T15:12:17.772Z,10.20
2022-10-19T15:14:47.393Z,9.80
2022-10-19T15:17:26.378Z,6.60
2022-10-19T15:19:57.871Z,7.70
2022-10-19T15:22:40.284Z,10.00
2022-10-19T15:25:34.751Z,42.10
2022-10-19T15:28:34.979Z,55.80
2022-10-19T15:31:12.880Z,25.60
2022-10-19T15:33:46.280Z,22.50
2022-10-19T15:36:16.900Z,8.90
2022-10-19T15:38:49.351Z,57.50
2022-10-19T15:41:28.110Z,34.10
2022-10-19T15:43:59.149Z,19.40
2022-10-19T15:46:31.329Z,10.00
2022-10-19T15:49:04.186Z,7.40
2022-10-19T15:51:42.620Z,7.50
2022-10-19T15:54:15.123Z,4.90
2022-10-19T15:56:47.933Z,5.20
2022-10-19T15:59:19.189Z,5.10
2022-10-19T16:01:53.726Z,6.90
2022-10-19T16:04:24.707Z,6.70
2022-10-19T16:06:53.212Z,7.70
2022-10-19T16:09:22.777Z,15.30
2022-10-19T16:11:56.003Z,11.70
2022-10-19T16:14:25.717Z,9.30
2022-10-19T16:16:55.633Z,8.10
2022-10-19T16:19:24.269Z,8.50
2022-10-19T16:21:53.261Z,14.00
2022-10-19T16:24:22.129Z,12.90
2022-10-19T16:26:50.719Z,10.00
2022-10-19T16:29:19.330Z,18.60
2022-10-19T16:31:48.537Z,9.20
2022-10-19T16:34:17.036Z,8.00
2022-10-19T16:36:46.032Z,8.10
2022-10-19T16:39:14.505Z,11.00
2022-10-19T16:41:44.386Z,6.40
2022-10-19T16:44:13.137Z,7.60
2022-10-19T16:46:42.109Z,9.90
2022-10-19T16:49:10.685Z,9.30
2022-10-19T16:51:40.571Z,8.60
2022-10-19T16:54:11.313Z,7.50
2022-10-19T16:56:45.022Z,7.70
2022-10-19T16:59:16.143Z,9.00
2022-10-19T17:01:48.652Z,14.50
2022-10-19T17:04:17.616Z,15.10
2022-10-19T17:06:49.070Z,9.60
2022-10-19T17:12:06.837Z,9.00
2022-10-19T17:14:36.032Z,9.80
2022-10-19T17:17:06.323Z,14.60
2022-10-19T17:19:38.689Z,13.50
2022-10-19T17:22:07.305Z,10.00
2022-10-19T17:24:36.862Z,9.60
2022-10-19T17:27:05.712Z,12.40
2022-10-19T17:29:34.395Z,14.50
2022-10-19T17:32:02.900Z,15.80
2022-10-19T17:34:31.557Z,13.90
2022-10-19T17:37:04.718Z,13.80
2022-10-19T17:39:33.785Z,10.80
2022-10-19T17:42:04.279Z,9.00
2022-10-19T17:44:32.972Z,10.10
2022-10-19T17:47:01.765Z,12.40
2022-10-19T17:49:30.542Z,12.40
2022-10-19T17:51:59.223Z,11.00
2022-10-19T17:54:27.885Z,15.40
2022-10-19T17:56:56.548Z,11.40
2022-10-19T17:59:34.731Z,14.90
2022-10-19T18:02:06.808Z,11.20
2022-10-19T18:07:10.586Z,10.90
2022-10-19T18:09:39.264Z,10.50
2022-10-19T18:12:12.586Z,9.80
2022-10-19T18:14:41.248Z,10.10
2022-10-19T18:17:10.040Z,10.10
2022-10-19T18:19:38.713Z,12.20
2022-10-19T18:22:07.381Z,11.90
2022-10-19T18:24:35.952Z,9.50
2022-10-19T18:27:04.554Z,9.80
2022-10-19T18:29:33.305Z,9.70
2022-10-19T18:32:02.012Z,11.20
2022-10-19T18:34:30.694Z,10.50
2022-10-19T18:36:59.265Z,14.10
2022-10-19T18:39:28.086Z,11.30
2022-10-19T18:41:56.703Z,13.40
2022-10-19T18:44:27.919Z,10.70
2022-10-19T18:46:57.831Z,12.40
2022-10-19T18:49:26.877Z,13.40
2022-10-19T18:51:56.078Z,13.80
2022-10-19T18:54:27.254Z,13.10
2022-10-19T18:56:55.959Z,13.70
2022-10-19T18:59:24.566Z,13.80
2022-10-19T19:01:53.964Z,12.40
2022-10-19T19:04:22.615Z,15.90
2022-10-19T19:06:52.594Z,11.70
2022-10-19T19:09:22.855Z,11.50
2022-10-19T19:11:53.523Z,20.00
2022-10-19T19:14:22.299Z,12.90
2022-10-19T19:16:54.076Z,11.90
2022-10-19T19:19:24.658Z,13.60
2022-10-19T19:21:53.224Z,16.20
2022-10-19T19:24:22.584Z,21.10
2022-10-19T19:26:53.233Z,30.20
2022-10-19T19:29:23.582Z,39.20
2022-10-19T19:31:53.302Z,60.20
2022-10-19T19:34:22.360Z,158.40
2022-10-19T19:36:51.117Z,200.30
2022-10-19T19:39:21.064Z,103.40
2022-10-19T19:41:50.522Z,94.00
2022-10-19T19:44:19.973Z,73.20
2022-10-19T19:46:48.559Z,45.40
2022-10-19T19:49:17.202Z,35.80
2022-10-19T19:51:45.752Z,32.50
2022-10-19T19:54:14.716Z,29.00
2022-10-19T19:56:43.278Z,21.70
2022-10-19T19:59:13.116Z,22.50
2022-10-19T20:01:42.353Z,24.00
2022-10-19T20:04:11.529Z,30.40
2022-10-19T20:06:40.602Z,27.10
2022-10-19T20:09:10.139Z,29.70
2022-10-19T20:11:42.311Z,25.00
2022-10-19T20:14:12.457Z,26.40
2022-10-19T20:16:41.564Z,26.50
2022-10-19T20:19:12.531Z,21.30
2022-10-19T20:21:42.424Z,22.80
2022-10-19T20:24:11.416Z,20.90
2022-10-19T20:26:40.002Z,22.60
2022-10-19T20:29:08.729Z,20.40
2022-10-19T20:31:40.144Z,28.30
2022-10-19T20:34:12.903Z,53.30
2022-10-19T20:36:41.878Z,57.00
2022-10-19T20:39:10.704Z,46.70
2022-10-19T20:41:39.457Z,29.30
2022-10-19T20:44:07.996Z,26.50
2022-10-19T20:46:36.762Z,19.50
2022-10-19T20:49:06.704Z,17.00
2022-10-19T20:51:36.450Z,15.20
2022-10-19T20:54:07.450Z,12.80
2022-10-19T20:56:37.806Z,13.30
2022-10-19T20:59:08.072Z,13.00
2022-10-19T21:01:38.589Z,13.60
2022-10-19T21:06:39.067Z,11.30
2022-10-19T21:09:12.910Z,12.70
2022-10-19T21:11:43.129Z,10.90
2022-10-19T21:14:14.707Z,12.40
2022-10-19T21:16:44.365Z,10.80
2022-10-19T21:19:15.133Z,12.20
2022-10-19T21:21:46.692Z,12.00
2022-10-19T21:24:17.065Z,13.00
2022-10-19T21:26:45.998Z,14.60
2022-10-19T21:29:16.625Z,17.00
2022-10-19T21:34:20.117Z,15.80
2022-10-19T21:36:51.117Z,18.60
2022-10-19T21:39:20.599Z,21.10
2022-10-19T21:41:52.068Z,18.80
2022-10-19T21:44:22.460Z,17.30
2022-10-19T21:46:51.171Z,20.80
2022-10-19T21:49:19.946Z,21.10
2022-10-19T21:51:51.094Z,20.90
2022-10-19T21:54:25.064Z,22.30
2022-10-19T21:56:56.014Z,22.10
2022-10-19T21:59:25.273Z,26.30
2022-10-19T22:01:55.598Z,30.20
2022-10-19T22:04:24.321Z,32.30
2022-10-19T22:06:53.026Z,29.20
2022-10-19T23:23:47.603Z,24.20
2022-10-19T23:26:18.559Z,20.40
2022-10-19T23:28:49.543Z,26.30
2022-10-19T23:31:20.137Z,24.70
2022-10-19T23:33:51.223Z,26.90
2022-10-19T23:36:22.572Z,26.10
2022-10-19T23:38:52.639Z,27.40
2022-10-19T23:41:22.054Z,26.90
2022-10-19T23:43:50.681Z,24.30
2022-10-19T23:46:19.257Z,24.50
2022-10-19T23:48:48.194Z,25.60
2022-10-19T23:51:18.645Z,25.20
2022-10-19T23:53:49.190Z,23.20
2022-10-19T23:58:47.096Z,21.00
